sensor_id;sensor_type;location;lat;lon;timestamp;pressure;altitude;pressure_sealevel;temperature;humidity
22755;BME280;11544;42.020;23.094;2022-07-09T00:00:36;97050.38;;;19.07;100.00
22755;BME280;11544;42.020;23.094;2022-07-09T00:03:02;97041.34;;;18.85;100.00
22755;BME280;11544;42.020;23.094;2022-07-09T00:05:27;97060.91;;;18.44;100.00
22755;BME280;11544;42.020;23.094;2022-07-09T00:07:53;97067.56;;;18.50;100.00
22755;BME280;11544;42.020;23.094;2022-07-09T00:10:19;97047.78;;;18.81;100.00
22755;BME280;11544;42.020;23.094;2022-07-09T00:12:45;97032.78;;;18.81;100.00
22755;BME280;11544;42.020;23.094;2022-07-09T00:15:11;97034.56;;;18.68;100.00
22755;BME280;11544;42.020;23.094;2022-07-09T00:17:36;97026.47;;;18.58;100.00
22755;BME280;11544;42.020;23.094;2022-07-09T00:20:03;97024.22;;;18.91;100.00
22755;BME280;11544;42.020;23.094;2022-07-09T00:22:33;97021.59;;;18.78;100.00
22755;BME280;11544;42.020;23.094;2022-07-09T00:24:59;97019.88;;;18.90;100.00
22755;BME280;11544;42.020;23.094;2022-07-09T00:27:25;97025.75;;;18.44;100.00
22755;BME280;11544;42.020;23.094;2022-07-09T00:29:51;97027.97;;;18.50;100.00
22755;BME280;11544;42.020;23.094;2022-07-09T00:32:17;97031.88;;;18.18;100.00
22755;BME280;11544;42.020;23.094;2022-07-09T00:34:43;97032.72;;;17.93;100.00
22755;BME280;11544;42.020;23.094;2022-07-09T00:37:10;97033.97;;;17.88;100.00
22755;BME280;11544;42.020;23.094;2022-07-09T00:39:35;97032.84;;;18.43;100.00
22755;BME280;11544;42.020;23.094;2022-07-09T00:42:05;97017.75;;;18.45;100.00
22755;BME280;11544;42.020;23.094;2022-07-09T00:44:32;97009.75;;;17.95;100.00
22755;BME280;11544;42.020;23.094;2022-07-09T00:46:58;97019.00;;;18.39;100.00
22755;BME280;11544;42.020;23.094;2022-07-09T00:49:25;97010.56;;;18.34;100.00
22755;BME280;11544;42.020;23.094;2022-07-09T00:51:52;96998.69;;;18.78;100.00
22755;BME280;11544;42.020;23.094;2022-07-09T00:54:19;96996.69;;;18.69;100.00
22755;BME280;11544;42.020;23.094;2022-07-09T00:56:45;96979.41;;;18.39;100.00
22755;BME280;11544;42.020;23.094;2022-07-09T00:59:11;96982.44;;;18.59;100.00
22755;BME280;11544;42.020;23.094;2022-07-09T01:01:41;96990.00;;;18.27;100.00
22755;BME280;11544;42.020;23.094;2022-07-09T01:04:07;96979.03;;;18.70;100.00
22755;BME280;11544;42.020;23.094;2022-07-09T01:06:33;96976.16;;;18.23;100.00
22755;BME280;11544;42.020;23.094;2022-07-09T01:09:02;96989.03;;;18.02;100.00
22755;BME280;11544;42.020;23.094;2022-07-09T01:11:28;96999.06;;;18.23;100.00
22755;BME280;11544;42.020;23.094;2022-07-09T01:13:54;96990.00;;;18.01;100.00
22755;BME280;11544;42.020;23.094;2022-07-09T01:16:20;97001.38;;;18.27;100.00
22755;BME280;11544;42.020;23.094;2022-07-09T01:18:47;96992.88;;;18.60;100.00
22755;BME280;11544;42.020;23.094;2022-07-09T01:21:15;96985.44;;;18.41;100.00
22755;BME280;11544;42.020;23.094;2022-07-09T01:23:41;96983.72;;;18.53;100.00
22755;BME280;11544;42.020;23.094;2022-07-09T01:26:07;96989.69;;;18.81;100.00
22755;BME280;11544;42.020;23.094;2022-07-09T01:28:33;97002.28;;;18.77;100.00
22755;BME280;11544;42.020;23.094;2022-07-09T01:30:59;96994.69;;;18.60;100.00
22755;BME280;11544;42.020;23.094;2022-07-09T01:33:27;96992.84;;;18.86;100.00
22755;BME280;11544;42.020;23.094;2022-07-09T01:35:53;96979.41;;;18.39;100.00
22755;BME280;11544;42.020;23.094;2022-07-09T01:38:19;96983.59;;;18.80;100.00
22755;BME280;11544;42.020;23.094;2022-07-09T01:40:44;96976.38;;;18.82;100.00
22755;BME280;11544;42.020;23.094;2022-07-09T01:43:10;96958.50;;;18.49;100.00
22755;BME280;11544;42.020;23.094;2022-07-09T01:45:36;96963.03;;;18.97;100.00
22755;BME280;11544;42.020;23.094;2022-07-09T01:48:02;96972.69;;;18.72;100.00
22755;BME280;11544;42.020;23.094;2022-07-09T01:50:28;96977.78;;;18.62;100.00
22755;BME280;11544;42.020;23.094;2022-07-09T01:52:53;96987.91;;;18.19;100.00
22755;BME280;11544;42.020;23.094;2022-07-09T01:55:19;97000.66;;;18.88;100.00
22755;BME280;11544;42.020;23.094;2022-07-09T01:57:45;96995.59;;;18.85;100.00
22755;BME280;11544;42.020;23.094;2022-07-09T02:00:11;96998.22;;;18.85;100.00
22755;BME280;11544;42.020;23.094;2022-07-09T02:02:39;97003.31;;;18.75;100.00
22755;BME280;11544;42.020;23.094;2022-07-09T02:05:06;97001.84;;;18.83;100.00
22755;BME280;11544;42.020;23.094;2022-07-09T02:07:32;97003.66;;;19.07;100.00
22755;BME280;11544;42.020;23.094;2022-07-09T02:09:58;97004.41;;;18.59;100.00
22755;BME280;11544;42.020;23.094;2022-07-09T02:12:23;97005.56;;;18.55;100.00
22755;BME280;11544;42.020;23.094;2022-07-09T02:14:49;96996.09;;;18.40;100.00
22755;BME280;11544;42.020;23.094;2022-07-09T02:17:15;96993.56;;;18.38;100.00
22755;BME280;11544;42.020;23.094;2022-07-09T02:19:41;96988.78;;;18.56;100.00
22755;BME280;11544;42.020;23.094;2022-07-09T02:22:06;96987.97;;;18.43;100.00
22755;BME280;11544;42.020;23.094;2022-07-09T02:24:32;96977.72;;;18.75;100.00
22755;BME280;11544;42.020;23.094;2022-07-09T02:26:58;96978.03;;;18.47;100.00
22755;BME280;11544;42.020;23.094;2022-07-09T02:29:24;96980.25;;;18.40;100.00
22755;BME280;11544;42.020;23.094;2022-07-09T02:31:49;96981.66;;;18.20;100.00
22755;BME280;11544;42.020;23.094;2022-07-09T02:34:15;96980.91;;;18.44;100.00
22755;BME280;11544;42.020;23.094;2022-07-09T02:36:41;96990.44;;;18.08;100.00
22755;BME280;11544;42.020;23.094;2022-07-09T02:39:06;96989.97;;;17.75;100.00
22755;BME280;11544;42.020;23.094;2022-07-09T02:41:32;96990.22;;;18.24;100.00
22755;BME280;11544;42.020;23.094;2022-07-09T02:43:58;96983.97;;;18.25;100.00
22755;BME280;11544;42.020;23.094;2022-07-09T02:46:23;96986.72;;;18.36;100.00
22755;BME280;11544;42.020;23.094;2022-07-09T02:48:49;96989.91;;;18.65;100.00
22755;BME280;11544;42.020;23.094;2022-07-09T02:51:15;96988.91;;;18.92;100.00
22755;BME280;11544;42.020;23.094;2022-07-09T02:53:40;96982.41;;;18.22;100.00
22755;BME280;11544;42.020;23.094;2022-07-09T02:56:06;96974.09;;;18.65;100.00
22755;BME280;11544;42.020;23.094;2022-07-09T02:58:32;96978.72;;;18.25;100.00
22755;BME280;11544;42.020;23.094;2022-07-09T03:00:57;96980.47;;;18.37;100.00
22755;BME280;11544;42.020;23.094;2022-07-09T03:03:23;96979.47;;;18.63;100.00
22755;BME280;11544;42.020;23.094;2022-07-09T03:05:50;96980.66;;;18.47;100.00
22755;BME280;11544;42.020;23.094;2022-07-09T03:08:15;96977.59;;;18.53;100.00
22755;BME280;11544;42.020;23.094;2022-07-09T03:10:41;96975.28;;;18.48;100.00
22755;BME280;11544;42.020;23.094;2022-07-09T03:13:07;96986.84;;;18.71;100.00
22755;BME280;11544;42.020;23.094;2022-07-09T03:15:33;96993.59;;;18.00;100.00
22755;BME280;11544;42.020;23.094;2022-07-09T03:17:58;96985.44;;;18.41;100.00
22755;BME280;11544;42.020;23.094;2022-07-09T03:20:24;96976.59;;;18.30;100.00
22755;BME280;11544;42.020;23.094;2022-07-09T03:22:50;96980.50;;;18.24;100.00
22755;BME280;11544;42.020;23.094;2022-07-09T03:25:16;96993.78;;;18.35;100.00
22755;BME280;11544;42.020;23.094;2022-07-09T03:27:41;96992.59;;;18.39;100.00
22755;BME280;11544;42.020;23.094;2022-07-09T03:30:07;96993.03;;;18.46;100.00
22755;BME280;11544;42.020;23.094;2022-07-09T03:32:33;96980.56;;;18.48;100.00
22755;BME280;11544;42.020;23.094;2022-07-09T03:34:59;96987.75;;;18.46;100.00
22755;BME280;11544;42.020;23.094;2022-07-09T03:37:24;96978.44;;;18.53;100.00
22755;BME280;11544;42.020;23.094;2022-07-09T03:39:50;96984.94;;;18.73;100.00
22755;BME280;11544;42.020;23.094;2022-07-09T03:42:16;96995.63;;;18.59;100.00
22755;BME280;11544;42.020;23.094;2022-07-09T03:44:42;97001.16;;;18.43;100.00
22755;BME280;11544;42.020;23.094;2022-07-09T03:47:08;97002.09;;;18.42;100.00
22755;BME280;11544;42.020;23.094;2022-07-09T03:49:33;97010.94;;;18.67;100.00
22755;BME280;11544;42.020;23.094;2022-07-09T03:52:00;97011.34;;;18.73;100.00
22755;BME280;11544;42.020;23.094;2022-07-09T03:54:25;97013.75;;;18.89;100.00
22755;BME280;11544;42.020;23.094;2022-07-09T03:56:51;97009.09;;;19.41;100.00
22755;BME280;11544;42.020;23.094;2022-07-09T03:59:18;96995.47;;;19.34;100.00
22755;BME280;11544;42.020;23.094;2022-07-09T04:01:44;96988.06;;;19.39;100.00
22755;BME280;11544;42.020;23.094;2022-07-09T04:04:09;96986.91;;;19.19;100.00
22755;BME280;11544;42.020;23.094;2022-07-09T04:06:35;96998.84;;;18.75;100.00
22755;BME280;11544;42.020;23.094;2022-07-09T04:09:02;97006.72;;;18.51;100.00
22755;BME280;11544;42.020;23.094;2022-07-09T04:11:32;97016.34;;;18.39;100.00
22755;BME280;11544;42.020;23.094;2022-07-09T04:13:59;97020.38;;;18.32;100.00
22755;BME280;11544;42.020;23.094;2022-07-09T04:16:25;97022.28;;;18.30;100.00
22755;BME280;11544;42.020;23.094;2022-07-09T04:18:51;97021.50;;;18.54;100.00
22755;BME280;11544;42.020;23.094;2022-07-09T04:21:16;97020.13;;;18.61;100.00
22755;BME280;11544;42.020;23.094;2022-07-09T04:23:42;97016.88;;;18.57;100.00
22755;BME280;11544;42.020;23.094;2022-07-09T04:26:08;97021.72;;;18.51;100.00
22755;BME280;11544;42.020;23.094;2022-07-09T04:28:37;97014.47;;;18.29;100.00
22755;BME280;11544;42.020;23.094;2022-07-09T04:31:03;97016.81;;;18.33;100.00
22755;BME280;11544;42.020;23.094;2022-07-09T04:33:29;97019.00;;;18.39;100.00
22755;BME280;11544;42.020;23.094;2022-07-09T04:35:55;97017.31;;;18.38;100.00
22755;BME280;11544;42.020;23.094;2022-07-09T04:38:21;97025.53;;;18.59;100.00
22755;BME280;11544;42.020;23.094;2022-07-09T04:40:46;97019.19;;;18.99;100.00
22755;BME280;11544;42.020;23.094;2022-07-09T04:43:12;97016.06;;;18.94;100.00
22755;BME280;11544;42.020;23.094;2022-07-09T04:45:38;97015.28;;;18.80;100.00
22755;BME280;11544;42.020;23.094;2022-07-09T04:48:04;97027.44;;;18.57;100.00
22755;BME280;11544;42.020;23.094;2022-07-09T04:50:30;97030.53;;;18.75;100.00
22755;BME280;11544;42.020;23.094;2022-07-09T04:52:55;97036.41;;;18.80;100.00
22755;BME280;11544;42.020;23.094;2022-07-09T04:55:21;97039.66;;;18.58;100.00
22755;BME280;11544;42.020;23.094;2022-07-09T04:57:48;97035.00;;;18.88;100.00
22755;BME280;11544;42.020;23.094;2022-07-09T05:00:14;97029.56;;;18.52;100.00
22755;BME280;11544;42.020;23.094;2022-07-09T05:02:43;97033.25;;;18.37;100.00
22755;BME280;11544;42.020;23.094;2022-07-09T05:05:09;97041.28;;;18.48;100.00
22755;BME280;11544;42.020;23.094;2022-07-09T05:07:35;97041.88;;;18.52;100.00
22755;BME280;11544;42.020;23.094;2022-07-09T05:10:02;97043.59;;;18.40;100.00
22755;BME280;11544;42.020;23.094;2022-07-09T05:12:30;97044.97;;;18.46;100.00
22755;BME280;11544;42.020;23.094;2022-07-09T05:14:56;97045.50;;;18.25;100.00
22755;BME280;11544;42.020;23.094;2022-07-09T05:17:23;97054.56;;;18.59;100.00
22755;BME280;11544;42.020;23.094;2022-07-09T05:19:49;97042.91;;;18.75;100.00
22755;BME280;11544;42.020;23.094;2022-07-09T05:22:15;97040.75;;;18.30;100.00
22755;BME280;11544;42.020;23.094;2022-07-09T05:24:42;97046.25;;;18.27;100.00
22755;BME280;11544;42.020;23.094;2022-07-09T05:27:08;97049.00;;;18.38;100.00
22755;BME280;11544;42.020;23.094;2022-07-09T05:29:35;97050.44;;;18.55;100.00
22755;BME280;11544;42.020;23.094;2022-07-09T05:32:01;97039.88;;;18.55;100.00
22755;BME280;11544;42.020;23.094;2022-07-09T05:34:26;97042.84;;;18.51;100.00
22755;BME280;11544;42.020;23.094;2022-07-09T05:36:52;97046.94;;;18.68;100.00
22755;BME280;11544;42.020;23.094;2022-07-09T05:39:20;97044.00;;;18.59;100.00
22755;BME280;11544;42.020;23.094;2022-07-09T05:41:46;97051.72;;;18.37;100.00
22755;BME280;11544;42.020;23.094;2022-07-09T05:44:12;97048.16;;;18.38;100.00
22755;BME280;11544;42.020;23.094;2022-07-09T05:46:38;97049.72;;;18.40;100.00
22755;BME280;11544;42.020;23.094;2022-07-09T05:49:03;97040.97;;;18.27;100.00
22755;BME280;11544;42.020;23.094;2022-07-09T05:51:29;97043.94;;;18.35;100.00
22755;BME280;11544;42.020;23.094;2022-07-09T05:53:55;97040.63;;;18.57;100.00
22755;BME280;11544;42.020;23.094;2022-07-09T05:56:21;97036.81;;;18.61;100.00
22755;BME280;11544;42.020;23.094;2022-07-09T05:58:47;97030.59;;;18.62;100.00
22755;BME280;11544;42.020;23.094;2022-07-09T06:01:13;97028.09;;;18.35;100.00
22755;BME280;11544;42.020;23.094;2022-07-09T06:03:39;97033.72;;;18.68;100.00
22755;BME280;11544;42.020;23.094;2022-07-09T06:06:06;97032.84;;;18.43;100.00
22755;BME280;11544;42.020;23.094;2022-07-09T06:08:32;97027.03;;;18.38;100.00
22755;BME280;11544;42.020;23.094;2022-07-09T06:10:59;97021.06;;;18.86;100.00
22755;BME280;11544;42.020;23.094;2022-07-09T06:13:25;97028.19;;;19.20;100.00
22755;BME280;11544;42.020;23.094;2022-07-09T06:15:51;97021.84;;;18.99;100.00
22755;BME280;11544;42.020;23.094;2022-07-09T06:18:17;97027.75;;;18.78;100.00
22755;BME280;11544;42.020;23.094;2022-07-09T06:20:43;97026.69;;;19.05;100.00
22755;BME280;11544;42.020;23.094;2022-07-09T06:23:09;97018.69;;;18.94;100.00
22755;BME280;11544;42.020;23.094;2022-07-09T06:25:35;97011.22;;;18.88;100.00
22755;BME280;11544;42.020;23.094;2022-07-09T06:28:03;97008.72;;;18.73;100.00
22755;BME280;11544;42.020;23.094;2022-07-09T06:30:29;97009.34;;;19.14;100.00
22755;BME280;11544;42.020;23.094;2022-07-09T06:32:55;97018.59;;;19.19;100.00
22755;BME280;11544;42.020;23.094;2022-07-09T06:35:20;97014.06;;;19.21;100.00
22755;BME280;11544;42.020;23.094;2022-07-09T06:37:46;97021.47;;;19.16;100.00
22755;BME280;11544;42.020;23.094;2022-07-09T06:40:12;97020.97;;;19.35;100.00
22755;BME280;11544;42.020;23.094;2022-07-09T06:42:38;97009.41;;;19.96;100.00
22755;BME280;11544;42.020;23.094;2022-07-09T06:45:16;96996.31;;;19.59;100.00
22755;BME280;11544;42.020;23.094;2022-07-09T06:47:42;97000.53;;;19.61;100.00
22755;BME280;11544;42.020;23.094;2022-07-09T06:50:08;97007.19;;;19.78;100.00
22755;BME280;11544;42.020;23.094;2022-07-09T06:52:34;96996.50;;;19.56;100.00
22755;BME280;11544;42.020;23.094;2022-07-09T06:54:59;96997.09;;;19.48;100.00
22755;BME280;11544;42.020;23.094;2022-07-09T06:57:25;96993.53;;;19.96;100.00
22755;BME280;11544;42.020;23.094;2022-07-09T06:59:51;96990.69;;;20.33;100.00
22755;BME280;11544;42.020;23.094;2022-07-09T07:02:17;96989.44;;;20.03;100.00
22755;BME280;11544;42.020;23.094;2022-07-09T07:04:46;96983.94;;;20.51;100.00
22755;BME280;11544;42.020;23.094;2022-07-09T07:07:15;96972.16;;;20.33;100.00
22755;BME280;11544;42.020;23.094;2022-07-09T07:09:40;96979.47;;;20.06;100.00
22755;BME280;11544;42.020;23.094;2022-07-09T07:12:06;96977.66;;;19.96;100.00
22755;BME280;11544;42.020;23.094;2022-07-09T07:14:32;96965.16;;;20.77;100.00
22755;BME280;11544;42.020;23.094;2022-07-09T07:17:00;96950.69;;;20.81;100.00
22755;BME280;11544;42.020;23.094;2022-07-09T07:19:26;96952.28;;;20.72;100.00
22755;BME280;11544;42.020;23.094;2022-07-09T07:21:52;96964.56;;;20.28;100.00
22755;BME280;11544;42.020;23.094;2022-07-09T07:24:18;96953.97;;;19.94;100.00
22755;BME280;11544;42.020;23.094;2022-07-09T07:26:43;96956.63;;;19.94;100.00
22755;BME280;11544;42.020;23.094;2022-07-09T07:29:09;96965.03;;;19.99;100.00
22755;BME280;11544;42.020;23.094;2022-07-09T07:31:35;96961.16;;;19.81;100.00
22755;BME280;11544;42.020;23.094;2022-07-09T07:34:00;96957.56;;;19.93;100.00
22755;BME280;11544;42.020;23.094;2022-07-09T07:36:26;96960.47;;;20.01;100.00
22755;BME280;11544;42.020;23.094;2022-07-09T07:38:53;96955.53;;;19.97;100.00
22755;BME280;11544;42.020;23.094;2022-07-09T07:41:19;96951.31;;;20.05;100.00
22755;BME280;11544;42.020;23.094;2022-07-09T07:43:46;96956.63;;;19.94;100.00
22755;BME280;11544;42.020;23.094;2022-07-09T07:46:12;96964.06;;;20.00;100.00
22755;BME280;11544;42.020;23.094;2022-07-09T07:48:38;96953.03;;;20.06;100.00
22755;BME280;11544;42.020;23.094;2022-07-09T07:51:07;96951.47;;;20.04;100.00
22755;BME280;11544;42.020;23.094;2022-07-09T07:53:34;96953.63;;;20.10;100.00
22755;BME280;11544;42.020;23.094;2022-07-09T07:56:01;96954.72;;;20.19;100.00
22755;BME280;11544;42.020;23.094;2022-07-09T07:58:26;96948.34;;;20.33;100.00
22755;BME280;11544;42.020;23.094;2022-07-09T08:00:52;96941.94;;;20.35;100.00
22755;BME280;11544;42.020;23.094;2022-07-09T08:03:18;96938.56;;;20.33;100.00
22755;BME280;11544;42.020;23.094;2022-07-09T08:05:44;96941.22;;;20.33;100.00
22755;BME280;11544;42.020;23.094;2022-07-09T08:08:10;96930.28;;;20.38;98.55
22755;BME280;11544;42.020;23.094;2022-07-09T08:10:35;96937.97;;;20.52;99.74
22755;BME280;11544;42.020;23.094;2022-07-09T08:13:01;96929.19;;;20.51;99.69
22755;BME280;11544;42.020;23.094;2022-07-09T08:15:27;96936.41;;;20.49;99.43
22755;BME280;11544;42.020;23.094;2022-07-09T08:17:52;96934.59;;;20.72;98.49
22755;BME280;11544;42.020;23.094;2022-07-09T08:20:19;96931.72;;;20.42;97.88
22755;BME280;11544;42.020;23.094;2022-07-09T08:22:45;96929.28;;;20.50;97.83
22755;BME280;11544;42.020;23.094;2022-07-09T08:25:11;96920.53;;;20.61;96.21
22755;BME280;11544;42.020;23.094;2022-07-09T08:27:37;96919.78;;;20.70;94.41
22755;BME280;11544;42.020;23.094;2022-07-09T08:30:03;96918.44;;;20.76;94.32
22755;BME280;11544;42.020;23.094;2022-07-09T08:32:29;96917.06;;;20.92;94.06
22755;BME280;11544;42.020;23.094;2022-07-09T08:34:55;96908.59;;;21.10;93.60
22755;BME280;11544;42.020;23.094;2022-07-09T08:37:20;96902.22;;;21.01;92.13
22755;BME280;11544;42.020;23.094;2022-07-09T08:39:46;96902.91;;;21.35;91.76
22755;BME280;11544;42.020;23.094;2022-07-09T08:42:12;96907.06;;;21.28;90.11
22755;BME280;11544;42.020;23.094;2022-07-09T08:44:39;96906.19;;;21.28;91.43
22755;BME280;11544;42.020;23.094;2022-07-09T08:47:10;96903.66;;;21.05;90.01
22755;BME280;11544;42.020;23.094;2022-07-09T08:49:37;96900.81;;;21.50;89.69
22755;BME280;11544;42.020;23.094;2022-07-09T08:52:05;96900.28;;;21.35;88.80
22755;BME280;11544;42.020;23.094;2022-07-09T08:54:31;96895.31;;;21.42;89.61
22755;BME280;11544;42.020;23.094;2022-07-09T08:56:58;96888.31;;;21.41;88.77
22755;BME280;11544;42.020;23.094;2022-07-09T08:59:24;96889.75;;;21.66;87.76
22755;BME280;11544;42.020;23.094;2022-07-09T09:01:49;96887.28;;;21.53;86.82
22755;BME280;11544;42.020;23.094;2022-07-09T09:04:15;96891.75;;;21.53;86.79
22755;BME280;11544;42.020;23.094;2022-07-09T09:06:41;96874.00;;;21.74;88.17
22755;BME280;11544;42.020;23.094;2022-07-09T09:09:08;96872.63;;;21.80;85.19
22755;BME280;11544;42.020;23.094;2022-07-09T09:11:37;96871.31;;;21.95;85.07
22755;BME280;11544;42.020;23.094;2022-07-09T09:14:03;96875.78;;;21.64;84.16
22755;BME280;11544;42.020;23.094;2022-07-09T09:16:29;96874.69;;;21.97;84.08
22755;BME280;11544;42.020;23.094;2022-07-09T09:18:55;96880.31;;;21.52;83.64
22755;BME280;11544;42.020;23.094;2022-07-09T09:21:26;96879.75;;;21.80;85.22
22755;BME280;11544;42.020;23.094;2022-07-09T09:23:54;96877.03;;;21.70;83.94
22755;BME280;11544;42.020;23.094;2022-07-09T09:26:25;96884.50;;;21.76;83.44
22755;BME280;11544;42.020;23.094;2022-07-09T09:33:48;96876.59;;;21.65;80.07
22755;BME280;11544;42.020;23.094;2022-07-09T09:36:34;96871.44;;;21.94;79.18
22755;BME280;11544;42.020;23.094;2022-07-09T09:41:49;96857.31;;;22.24;78.34
22755;BME280;11544;42.020;23.094;2022-07-09T09:44:20;96866.66;;;22.18;79.00
22755;BME280;11544;42.020;23.094;2022-07-09T09:46:47;96855.69;;;22.02;78.29
22755;BME280;11544;42.020;23.094;2022-07-09T09:49:14;96863.38;;;22.05;78.52
22755;BME280;11544;42.020;23.094;2022-07-09T09:52:08;96863.47;;;21.94;78.66
22755;BME280;11544;42.020;23.094;2022-07-09T09:54:37;96877.13;;;21.89;79.09
22755;BME280;11544;42.020;23.094;2022-07-09T09:57:07;96867.88;;;21.74;78.00
22755;BME280;11544;42.020;23.094;2022-07-09T09:59:36;96861.75;;;21.52;78.60
22755;BME280;11544;42.020;23.094;2022-07-09T10:02:04;96863.56;;;21.83;79.23
22755;BME280;11544;42.020;23.094;2022-07-09T10:04:32;96858.94;;;22.15;78.46
22755;BME280;11544;42.020;23.094;2022-07-09T10:06:58;96856.28;;;22.15;79.64
22755;BME280;11544;42.020;23.094;2022-07-09T10:09:24;96851.34;;;22.32;78.43
22755;BME280;11544;42.020;23.094;2022-07-09T10:11:50;96854.00;;;22.01;77.51
22755;BME280;11544;42.020;23.094;2022-07-09T10:16:51;96844.94;;;22.04;78.85
22755;BME280;11544;42.020;23.094;2022-07-09T10:19:28;96849.78;;;22.29;78.59
22755;BME280;11544;42.020;23.094;2022-07-09T10:21:58;96842.03;;;22.57;78.05
22755;BME280;11544;42.020;23.094;2022-07-09T10:24:32;96859.19;;;22.43;79.75
22755;BME280;11544;42.020;23.094;2022-07-09T10:27:06;96864.53;;;22.12;78.51
22755;BME280;11544;42.020;23.094;2022-07-09T10:29:34;96849.25;;;22.26;78.99
22755;BME280;11544;42.020;23.094;2022-07-09T10:32:01;96857.81;;;22.18;78.41
22755;BME280;11544;42.020;23.094;2022-07-09T10:35:02;96857.00;;;22.17;77.19
22755;BME280;11544;42.020;23.094;2022-07-09T10:37:35;96852.28;;;22.21;78.41
22755;BME280;11544;42.020;23.094;2022-07-09T10:40:15;96863.13;;;22.18;79.06
22755;BME280;11544;42.020;23.094;2022-07-09T10:42:44;96859.22;;;22.12;79.42
22755;BME280;11544;42.020;23.094;2022-07-09T10:45:27;96849.88;;;21.87;78.90
22755;BME280;11544;42.020;23.094;2022-07-09T10:47:58;96860.03;;;22.03;79.56
22755;BME280;11544;42.020;23.094;2022-07-09T10:50:26;96862.28;;;22.08;80.17
22755;BME280;11544;42.020;23.094;2022-07-09T10:52:53;96859.31;;;22.01;79.54
22755;BME280;11544;42.020;23.094;2022-07-09T10:55:20;96851.94;;;22.05;80.47
22755;BME280;11544;42.020;23.094;2022-07-09T10:57:46;96861.53;;;22.27;79.82
22755;BME280;11544;42.020;23.094;2022-07-09T11:00:17;96861.81;;;22.24;79.83
22755;BME280;11544;42.020;23.094;2022-07-09T11:03:02;96876.03;;;21.92;78.57
22755;BME280;11544;42.020;23.094;2022-07-09T11:05:43;96882.56;;;21.78;80.42
22755;BME280;11544;42.020;23.094;2022-07-09T11:08:10;96871.00;;;21.89;79.20
22755;BME280;11544;42.020;23.094;2022-07-09T11:10:37;96881.41;;;22.02;79.24
22755;BME280;11544;42.020;23.094;2022-07-09T11:13:05;96884.31;;;21.98;80.01
22755;BME280;11544;42.020;23.094;2022-07-09T11:15:33;96880.22;;;21.94;79.25
22755;BME280;11544;42.020;23.094;2022-07-09T11:18:01;96896.66;;;21.78;79.43
22755;BME280;11544;42.020;23.094;2022-07-09T11:20:41;96899.50;;;21.66;78.92
22755;BME280;11544;42.020;23.094;2022-07-09T11:23:09;96892.84;;;21.71;78.76
22755;BME280;11544;42.020;23.094;2022-07-09T11:25:35;96899.25;;;21.99;78.72
22755;BME280;11544;42.020;23.094;2022-07-09T11:28:02;96896.69;;;21.88;77.37
22755;BME280;11544;42.020;23.094;2022-07-09T11:30:29;96877.13;;;22.20;77.49
22755;BME280;11544;42.020;23.094;2022-07-09T11:32:56;96877.03;;;22.22;77.95
22755;BME280;11544;42.020;23.094;2022-07-09T11:35:30;96884.94;;;21.60;77.84
22755;BME280;11544;42.020;23.094;2022-07-09T11:37:59;96882.66;;;21.76;77.88
22755;BME280;11544;42.020;23.094;2022-07-09T11:40:26;96882.28;;;21.81;78.65
22755;BME280;11544;42.020;23.094;2022-07-09T11:42:52;96873.91;;;21.55;79.80
22755;BME280;11544;42.020;23.094;2022-07-09T11:48:02;96872.78;;;21.36;79.43
22755;BME280;11544;42.020;23.094;2022-07-09T11:50:28;96871.56;;;21.20;79.75
22755;BME280;11544;42.020;23.094;2022-07-09T11:52:54;96875.16;;;21.19;78.66
22755;BME280;11544;42.020;23.094;2022-07-09T11:55:21;96887.63;;;21.28;79.46
22755;BME280;11544;42.020;23.094;2022-07-09T11:57:55;96880.69;;;20.94;79.96
22755;BME280;11544;42.020;23.094;2022-07-09T12:00:28;96885.19;;;21.15;81.29
22755;BME280;11544;42.020;23.094;2022-07-09T12:02:55;96890.53;;;21.04;80.63
22755;BME280;11544;42.020;23.094;2022-07-09T12:05:31;96899.72;;;21.21;80.86
22755;BME280;11544;42.020;23.094;2022-07-09T12:07:59;96898.78;;;21.22;81.09
22755;BME280;11544;42.020;23.094;2022-07-09T12:10:30;96908.59;;;21.31;81.29
22755;BME280;11544;42.020;23.094;2022-07-09T12:13:00;96913.63;;;21.13;81.90
22755;BME280;11544;42.020;23.094;2022-07-09T12:15:27;96930.66;;;20.11;84.36
22755;BME280;11544;42.020;23.094;2022-07-09T12:17:57;96923.72;;;20.87;85.81
22755;BME280;11544;42.020;23.094;2022-07-09T12:20:24;96920.88;;;20.45;85.22
22755;BME280;11544;42.020;23.094;2022-07-09T12:22:50;96917.88;;;20.38;86.05
22755;BME280;11544;42.020;23.094;2022-07-09T12:25:20;96929.53;;;20.47;86.06
22755;BME280;11544;42.020;23.094;2022-07-09T12:27:47;96920.56;;;20.27;84.68
22755;BME280;11544;42.020;23.094;2022-07-09T12:30:13;96922.94;;;20.30;84.68
22755;BME280;11544;42.020;23.094;2022-07-09T12:32:39;96922.44;;;20.47;85.23
22755;BME280;11544;42.020;23.094;2022-07-09T12:35:07;96906.34;;;20.28;85.47
22755;BME280;11544;42.020;23.094;2022-07-09T12:37:33;96913.91;;;20.44;85.31
22755;BME280;11544;42.020;23.094;2022-07-09T12:40:03;96907.06;;;20.41;85.02
22755;BME280;11544;42.020;23.094;2022-07-09T12:42:29;96917.66;;;20.41;85.09
22755;BME280;11544;42.020;23.094;2022-07-09T12:44:55;96917.16;;;20.36;85.37
22755;BME280;11544;42.020;23.094;2022-07-09T12:47:21;96915.72;;;20.32;86.36
22755;BME280;11544;42.020;23.094;2022-07-09T12:49:47;96928.00;;;20.22;86.44
22755;BME280;11544;42.020;23.094;2022-07-09T12:52:13;96918.38;;;19.98;85.93
22755;BME280;11544;42.020;23.094;2022-07-09T12:54:39;96919.47;;;19.84;86.22